createdAt,value
2022-08-03T00:01:45.078Z,100.00
2022-08-03T00:04:13.376Z,100.00
2022-08-03T00:06:41.389Z,100.00
2022-08-03T00:09:11.131Z,100.00
2022-08-03T00:11:39.561Z,100.00
2022-08-03T00:14:08.323Z,100.00
2022-08-03T00:16:36.814Z,100.00
2022-08-03T00:19:05.124Z,100.00
2022-08-03T00:21:33.127Z,100.00
2022-08-03T00:24:01.672Z,100.00
2022-08-03T00:26:31.808Z,100.00
2022-08-03T00:28:59.817Z,100.00
2022-08-03T00:31:51.657Z,100.00
2022-08-03T00:34:15.781Z,100.00
2022-08-03T00:36:43.734Z,100.00
2022-08-03T00:39:11.700Z,100.00
2022-08-03T00:41:43.271Z,100.00
2022-08-03T00:44:11.256Z,100.00
2022-08-03T00:46:39.195Z,100.00
2022-08-03T00:49:07.238Z,100.00
2022-08-03T00:51:35.368Z,100.00
2022-08-03T00:54:03.398Z,100.00
2022-08-03T00:56:31.504Z,100.00
2022-08-03T00:59:01.543Z,100.00
2022-08-03T01:01:32.378Z,100.00
2022-08-03T01:04:03.222Z,100.00
2022-08-03T01:06:42.611Z,100.00
2022-08-03T01:09:16.447Z,100.00
2022-08-03T01:12:00.165Z,100.00
2022-08-03T01:14:35.753Z,100.00
2022-08-03T01:17:11.109Z,100.00
2022-08-03T01:19:50.879Z,100.00
2022-08-03T01:22:53.063Z,100.00
2022-08-03T01:25:36.478Z,100.00
2022-08-03T01:28:28.444Z,100.00
2022-08-03T01:31:01.385Z,100.00
2022-08-03T01:33:36.324Z,100.00
2022-08-03T01:36:08.595Z,100.00
2022-08-03T01:38:40.755Z,100.00
2022-08-03T01:41:13.285Z,100.00
2022-08-03T01:44:28.304Z,100.00
2022-08-03T01:46:34.861Z,100.00
2022-08-03T01:49:09.471Z,100.00
2022-08-03T01:51:56.713Z,100.00
2022-08-03T01:54:28.251Z,100.00
2022-08-03T01:56:59.674Z,100.00
2022-08-03T01:59:30.220Z,100.00
2022-08-03T02:02:15.511Z,100.00
2022-08-03T02:04:51.769Z,100.00
2022-08-03T02:07:21.088Z,100.00
2022-08-03T02:09:52.660Z,100.00
2022-08-03T02:12:22.339Z,100.00
2022-08-03T02:14:51.797Z,100.00
2022-08-03T02:17:39.760Z,100.00
2022-08-03T02:20:12.642Z,100.00
2022-08-03T02:22:42.237Z,100.00
2022-08-03T02:25:11.611Z,100.00
2022-08-03T02:27:44.253Z,100.00
2022-08-03T02:30:14.557Z,100.00
2022-08-03T02:32:50.193Z,100.00
2022-08-03T02:35:22.245Z,100.00
2022-08-03T02:37:54.286Z,100.00
2022-08-03T02:40:26.805Z,100.00
2022-08-03T02:42:59.345Z,100.00
2022-08-03T02:45:29.143Z,100.00
2022-08-03T02:48:03.139Z,100.00
2022-08-03T02:50:35.140Z,100.00
2022-08-03T02:53:04.395Z,100.00
2022-08-03T02:55:43.126Z,100.00
2022-08-03T02:58:15.250Z,100.00
2022-08-03T03:00:46.137Z,100.00
2022-08-03T03:03:16.904Z,100.00
2022-08-03T03:05:54.774Z,100.00
2022-08-03T03:08:28.245Z,100.00
2022-08-03T03:10:59.306Z,100.00
2022-08-03T03:13:29.324Z,100.00
2022-08-03T03:16:00.928Z,100.00
2022-08-03T03:18:33.327Z,100.00
2022-08-03T03:21:03.873Z,100.00
2022-08-03T03:23:33.057Z,100.00
2022-08-03T03:26:02.603Z,100.00
2022-08-03T03:28:31.722Z,100.00
2022-08-03T03:31:00.685Z,100.00
2022-08-03T03:33:30.194Z,100.00
2022-08-03T03:35:59.844Z,100.00
2022-08-03T03:38:28.629Z,100.00
2022-08-03T03:40:57.180Z,100.00
2022-08-03T03:43:25.868Z,100.00
2022-08-03T03:45:55.132Z,100.00
2022-08-03T03:48:23.112Z,100.00
2022-08-03T03:50:52.452Z,100.00
2022-08-03T03:53:20.510Z,100.00
2022-08-03T03:55:59.019Z,100.00
2022-08-03T03:58:30.325Z,100.00
2022-08-03T04:00:58.397Z,100.00
2022-08-03T04:03:26.472Z,100.00
2022-08-03T04:06:13.188Z,100.00
2022-08-03T04:08:58.931Z,100.00
2022-08-03T04:11:30.160Z,100.00
2022-08-03T04:14:04.156Z,100.00
2022-08-03T04:16:35.129Z,100.00
2022-08-03T04:19:06.556Z,100.00
2022-08-03T04:21:38.701Z,100.00
2022-08-03T04:24:09.681Z,100.00
2022-08-03T04:26:40.719Z,100.00
2022-08-03T04:29:10.605Z,100.00
2022-08-03T04:31:41.094Z,100.00
2022-08-03T04:34:09.393Z,100.00
2022-08-03T04:36:45.960Z,100.00
2022-08-03T04:39:17.477Z,100.00
2022-08-03T04:42:08.242Z,100.00
2022-08-03T04:44:41.543Z,100.00
2022-08-03T04:47:09.913Z,100.00
2022-08-03T04:49:39.421Z,100.00
2022-08-03T04:52:10.954Z,100.00
2022-08-03T04:54:42.549Z,100.00
2022-08-03T04:57:22.096Z,100.00
2022-08-03T04:59:58.250Z,100.00
2022-08-03T05:02:31.106Z,100.00
2022-08-03T05:04:59.872Z,100.00
2022-08-03T05:07:35.529Z,100.00
2022-08-03T05:10:15.712Z,100.00
2022-08-03T05:12:44.860Z,100.00
2022-08-03T05:15:13.190Z,100.00
2022-08-03T05:17:41.533Z,100.00
2022-08-03T05:20:11.027Z,100.00
2022-08-03T05:22:40.383Z,100.00
2022-08-03T05:25:09.132Z,100.00
2022-08-03T05:27:37.043Z,100.00
2022-08-03T05:30:30.501Z,100.00
2022-08-03T05:32:54.525Z,100.00
2022-08-03T05:36:00.449Z,100.00
2022-08-03T05:38:14.857Z,100.00
2022-08-03T05:40:57.184Z,100.00
2022-08-03T05:43:26.129Z,100.00
2022-08-03T05:46:12.015Z,100.00
2022-08-03T05:48:41.212Z,100.00
2022-08-03T05:51:12.118Z,100.00
2022-08-03T05:53:42.232Z,100.00
2022-08-03T05:56:14.060Z,100.00
2022-08-03T05:58:44.550Z,100.00
2022-08-03T06:01:12.642Z,100.00
2022-08-03T06:03:40.838Z,100.00
2022-08-03T06:06:09.208Z,100.00
2022-08-03T06:08:37.250Z,100.00
2022-08-03T06:11:06.659Z,100.00
2022-08-03T06:13:35.197Z,100.00
2022-08-03T06:16:03.257Z,100.00
2022-08-03T06:18:31.276Z,100.00
2022-08-03T06:21:01.608Z,100.00
2022-08-03T06:23:54.295Z,100.00
2022-08-03T06:26:25.923Z,100.00
2022-08-03T06:28:54.921Z,100.00
2022-08-03T06:31:32.233Z,100.00
2022-08-03T06:34:34.815Z,100.00
2022-08-03T06:36:51.119Z,100.00
2022-08-03T06:39:20.718Z,100.00
2022-08-03T06:41:53.773Z,100.00
2022-08-03T06:44:21.742Z,100.00
2022-08-03T06:46:49.807Z,100.00
2022-08-03T06:49:17.870Z,100.00
2022-08-03T06:52:05.655Z,100.00
2022-08-03T06:54:34.034Z,100.00
2022-08-03T06:57:03.663Z,100.00
2022-08-03T07:00:07.822Z,100.00
2022-08-03T07:02:20.391Z,100.00
2022-08-03T07:04:48.833Z,100.00
2022-08-03T07:07:17.465Z,100.00
2022-08-03T07:09:56.836Z,100.00
2022-08-03T07:12:28.271Z,100.00
2022-08-03T07:15:00.921Z,100.00
2022-08-03T07:17:30.272Z,100.00
2022-08-03T07:19:58.477Z,100.00
2022-08-03T07:22:26.927Z,100.00
2022-08-03T07:24:54.984Z,100.00
2022-08-03T07:27:22.977Z,100.00
2022-08-03T07:29:52.284Z,100.00
2022-08-03T07:32:20.562Z,100.00
2022-08-03T07:34:48.647Z,100.00
2022-08-03T07:37:16.630Z,100.00
2022-08-03T07:39:44.729Z,100.00
2022-08-03T07:42:12.793Z,100.00
2022-08-03T07:44:40.930Z,100.00
2022-08-03T07:47:10.558Z,100.00
2022-08-03T07:49:50.627Z,100.00
2022-08-03T07:52:36.463Z,100.00
2022-08-03T07:55:04.846Z,100.00
2022-08-03T07:57:32.839Z,100.00
2022-08-03T08:00:02.271Z,100.00
2022-08-03T08:02:32.120Z,100.00
2022-08-03T08:05:05.282Z,100.00
2022-08-03T08:07:33.875Z,100.00
2022-08-03T08:10:01.861Z,100.00
2022-08-03T08:12:30.016Z,100.00
2022-08-03T08:14:59.245Z,100.00
2022-08-03T08:17:27.232Z,100.00
2022-08-03T08:19:56.638Z,100.00
2022-08-03T08:22:30.521Z,100.00
2022-08-03T08:25:01.246Z,100.00
2022-08-03T08:28:22.274Z,100.00
2022-08-03T08:30:20.207Z,100.00
2022-08-03T08:32:48.667Z,100.00
2022-08-03T08:35:19.171Z,100.00
2022-08-03T08:37:51.192Z,100.00
2022-08-03T08:40:22.399Z,100.00
2022-08-03T08:42:58.518Z,100.00
2022-08-03T08:45:27.901Z,100.00
2022-08-03T08:48:01.831Z,100.00
2022-08-03T08:50:33.452Z,100.00
2022-08-03T08:53:04.361Z,100.00
2022-08-03T08:55:56.878Z,98.72
2022-08-03T08:58:22.939Z,100.00
2022-08-03T09:00:52.137Z,93.77
2022-08-03T09:03:29.258Z,93.77
2022-08-03T09:06:00.798Z,92.03
2022-08-03T09:08:29.744Z,93.85
2022-08-03T09:10:57.782Z,100.00
2022-08-03T09:13:26.276Z,98.13
2022-08-03T09:16:13.017Z,90.07
2022-08-03T09:18:42.466Z,90.23
2022-08-03T09:21:31.589Z,86.39
2022-08-03T09:24:03.798Z,87.95
2022-08-03T09:26:33.302Z,84.61
2022-08-03T09:29:09.356Z,84.57
2022-08-03T09:31:43.246Z,82.34
2022-08-03T09:34:13.856Z,84.96
2022-08-03T09:36:46.615Z,87.85
2022-08-03T09:39:16.752Z,83.09
2022-08-03T09:41:47.011Z,87.04
2022-08-03T09:44:25.296Z,85.35
2022-08-03T09:46:56.962Z,88.60
2022-08-03T09:49:25.586Z,83.51
2022-08-03T09:52:32.221Z,81.89
2022-08-03T09:54:44.528Z,79.96
2022-08-03T09:57:23.170Z,78.16
2022-08-03T10:00:01.889Z,81.84
2022-08-03T10:02:32.849Z,82.48
2022-08-03T10:05:00.889Z,77.44
2022-08-03T10:07:30.238Z,78.50
2022-08-03T10:10:30.495Z,82.04
2022-08-03T10:12:48.876Z,79.92
2022-08-03T10:16:23.238Z,80.43
2022-08-03T10:18:06.154Z,76.64
2022-08-03T10:20:39.420Z,77.19
2022-08-03T10:23:09.743Z,78.73
2022-08-03T10:25:40.725Z,75.51
2022-08-03T10:28:14.233Z,75.54
2022-08-03T10:30:44.155Z,73.53
2022-08-03T10:33:50.773Z,75.80
2022-08-03T10:36:09.594Z,73.48
2022-08-03T10:38:46.137Z,69.69
2022-08-03T10:41:14.809Z,70.95
2022-08-03T10:43:49.616Z,69.13
2022-08-03T10:46:20.265Z,68.59
2022-08-03T10:48:50.705Z,70.64
2022-08-03T10:51:18.761Z,72.94
2022-08-03T10:53:50.158Z,71.85
2022-08-03T10:57:13.539Z,69.28
2022-08-03T11:00:05.166Z,65.27
2022-08-03T11:03:10.240Z,65.95
2022-08-03T11:05:42.765Z,62.40
2022-08-03T11:08:31.668Z,60.81
2022-08-03T11:11:04.592Z,58.85
2022-08-03T11:13:33.984Z,57.91
2022-08-03T11:16:21.831Z,56.75
2022-08-03T11:18:58.220Z,57.77
2022-08-03T11:22:01.464Z,52.18
2022-08-03T11:25:00.634Z,53.39
2022-08-03T11:27:38.861Z,54.21
2022-08-03T11:30:09.555Z,51.60
2022-08-03T11:32:54.504Z,52.47
2022-08-03T11:35:24.880Z,52.05
2022-08-03T11:38:13.072Z,52.30
2022-08-03T11:40:44.427Z,52.20
2022-08-03T11:43:48.800Z,52.56
2022-08-03T11:46:28.737Z,53.92
2022-08-03T11:49:09.774Z,52.92
2022-08-03T11:51:40.086Z,52.35
2022-08-03T11:54:08.611Z,52.26
2022-08-03T11:56:46.619Z,53.28
2022-08-03T11:59:21.572Z,53.77
2022-08-03T12:01:50.538Z,54.69
2022-08-03T12:04:18.570Z,57.16
2022-08-03T12:07:00.367Z,57.36
2022-08-03T12:09:28.360Z,59.40
2022-08-03T12:11:59.659Z,59.59
2022-08-03T12:14:50.842Z,58.95
2022-08-03T12:17:19.116Z,58.78
2022-08-03T12:19:47.573Z,59.09
2022-08-03T12:22:18.773Z,59.91
2022-08-03T12:24:47.803Z,60.22
2022-08-03T12:27:25.445Z,62.21
2022-08-03T12:29:58.821Z,61.45
2022-08-03T12:32:27.838Z,63.51
2022-08-03T12:35:00.190Z,59.51
2022-08-03T12:37:28.747Z,58.17
2022-08-03T12:40:02.660Z,56.03
2022-08-03T12:42:35.574Z,56.51
2022-08-03T12:45:27.164Z,57.48
2022-08-03T12:47:57.248Z,56.32
2022-08-03T12:50:27.229Z,57.31
2022-08-03T12:52:56.109Z,55.65
2022-08-03T12:55:24.923Z,53.71
2022-08-03T12:57:52.940Z,51.71
2022-08-03T13:01:16.360Z,51.07
2022-08-03T13:04:39.015Z,47.84
2022-08-03T13:07:14.202Z,49.17
2022-08-03T13:09:44.338Z,48.34
2022-08-03T13:12:14.390Z,48.20
2022-08-03T13:14:43.215Z,46.92
2022-08-03T13:17:11.693Z,46.05
2022-08-03T13:19:41.158Z,47.68
2022-08-03T13:22:15.312Z,47.45
2022-08-03T13:24:44.074Z,47.94
2022-08-03T13:28:01.305Z,49.42
2022-08-03T13:30:01.565Z,49.90
2022-08-03T13:32:29.563Z,49.77
2022-08-03T13:34:57.634Z,48.99
2022-08-03T13:37:27.735Z,49.38
2022-08-03T13:40:00.692Z,48.02
2022-08-03T13:42:32.665Z,48.55
2022-08-03T13:45:01.299Z,48.10
2022-08-03T13:47:29.591Z,47.99
2022-08-03T13:50:00.818Z,48.87
2022-08-03T13:52:33.137Z,49.76
2022-08-03T13:55:01.620Z,51.18
2022-08-03T13:58:11.928Z,52.59
2022-08-03T14:00:26.462Z,53.55
2022-08-03T14:03:04.057Z,55.44
2022-08-03T14:05:35.770Z,58.76
2022-08-03T14:08:06.758Z,60.61
2022-08-03T14:10:36.835Z,62.75
2022-08-03T14:13:05.905Z,63.83
2022-08-03T14:15:38.121Z,67.27
2022-08-03T14:18:15.486Z,71.05
2022-08-03T14:20:50.168Z,76.88
2022-08-03T14:23:23.732Z,77.24
2022-08-03T14:25:53.129Z,78.66
2022-08-03T14:28:23.660Z,79.24
2022-08-03T14:30:52.689Z,84.00
2022-08-03T14:33:21.217Z,82.87
2022-08-03T14:35:49.828Z,82.39
2022-08-03T14:38:18.224Z,82.15
2022-08-03T14:40:48.254Z,82.56
2022-08-03T14:43:18.004Z,81.17
2022-08-03T14:45:46.230Z,81.46
2022-08-03T14:50:29.465Z,85.72
2022-08-03T14:51:02.774Z,89.00
2022-08-03T14:53:31.023Z,85.51
2022-08-03T14:56:00.344Z,87.33
2022-08-03T14:58:28.354Z,90.25
2022-08-03T15:00:57.141Z,95.92
2022-08-03T15:03:25.997Z,91.65
2022-08-03T15:05:56.334Z,88.68
2022-08-03T15:08:25.829Z,81.45
2022-08-03T15:10:54.464Z,85.06
2022-08-03T15:13:25.329Z,93.35
2022-08-03T15:15:53.476Z,96.93
2022-08-03T15:18:21.960Z,100.00
2022-08-03T15:20:50.920Z,99.82
2022-08-03T15:23:19.899Z,100.00
2022-08-03T15:26:03.759Z,100.00
2022-08-03T15:28:38.266Z,100.00
2022-08-03T15:31:07.437Z,100.00
2022-08-03T15:33:35.515Z,100.00
2022-08-03T15:36:04.252Z,100.00
2022-08-03T15:38:32.337Z,100.00
2022-08-03T15:41:00.386Z,100.00
2022-08-03T15:43:28.408Z,100.00
2022-08-03T15:46:27.855Z,100.00
2022-08-03T15:48:48.709Z,100.00
2022-08-03T15:51:17.416Z,100.00
2022-08-03T15:53:45.597Z,100.00
2022-08-03T15:56:18.431Z,100.00
2022-08-03T15:59:04.043Z,100.00
2022-08-03T16:01:36.787Z,100.00
2022-08-03T16:04:05.089Z,100.00
2022-08-03T16:06:35.733Z,100.00
2022-08-03T16:09:23.386Z,100.00
2022-08-03T16:11:54.426Z,100.00
2022-08-03T16:14:32.629Z,100.00
2022-08-03T16:17:10.248Z,100.00
2022-08-03T16:19:38.234Z,100.00
2022-08-03T16:22:06.812Z,100.00
2022-08-03T16:24:34.928Z,100.00
2022-08-03T16:27:05.889Z,100.00
2022-08-03T16:29:40.858Z,100.00
2022-08-03T16:32:10.336Z,100.00
2022-08-03T16:34:39.723Z,100.00
2022-08-03T16:37:36.634Z,100.00
2022-08-03T16:39:57.096Z,100.00
2022-08-03T16:42:25.075Z,100.00
2022-08-03T16:44:53.127Z,100.00
2022-08-03T16:47:23.030Z,100.00
2022-08-03T16:49:54.429Z,100.00
2022-08-03T16:52:24.672Z,100.00
2022-08-03T16:54:53.736Z,100.00
2022-08-03T16:57:58.153Z,100.00
2022-08-03T17:00:33.874Z,100.00
2022-08-03T17:03:18.893Z,100.00
2022-08-03T17:05:49.828Z,100.00
2022-08-03T17:08:26.782Z,100.00
2022-08-03T17:10:56.677Z,100.00
2022-08-03T17:13:27.813Z,100.00
2022-08-03T17:16:09.574Z,100.00
2022-08-03T17:18:42.218Z,100.00
2022-08-03T17:21:17.785Z,100.00
2022-08-03T17:23:50.667Z,100.00
2022-08-03T17:26:22.275Z,100.00
2022-08-03T17:28:58.154Z,100.00
2022-08-03T17:31:31.269Z,100.00
2022-08-03T17:34:04.483Z,100.00
2022-08-03T17:37:03.220Z,100.00
2022-08-03T17:39:48.359Z,100.00
2022-08-03T17:42:29.650Z,100.00
2022-08-03T17:45:03.848Z,100.00
2022-08-03T17:47:42.304Z,100.00
2022-08-03T17:50:26.141Z,100.00
2022-08-03T17:53:07.402Z,100.00
2022-08-03T17:55:57.278Z,100.00
2022-08-03T17:58:43.636Z,100.00
2022-08-03T18:02:05.699Z,100.00
2022-08-03T18:07:19.519Z,100.00
2022-08-03T18:10:03.583Z,100.00
2022-08-03T18:12:45.179Z,100.00
2022-08-03T18:15:21.941Z,100.00
2022-08-03T18:17:55.145Z,100.00
2022-08-03T18:20:32.912Z,100.00
2022-08-03T18:23:08.430Z,100.00
2022-08-03T18:25:49.170Z,100.00
2022-08-03T18:28:23.276Z,100.00
2022-08-03T18:30:54.216Z,100.00
2022-08-03T18:34:18.688Z,100.00
2022-08-03T18:36:17.352Z,100.00
2022-08-03T18:38:51.901Z,100.00
2022-08-03T18:41:33.282Z,100.00
2022-08-03T18:44:08.719Z,100.00
2022-08-03T18:47:07.525Z,100.00
2022-08-03T18:49:59.895Z,100.00
2022-08-03T18:52:37.357Z,100.00
2022-08-03T18:55:20.309Z,100.00
2022-08-03T18:57:53.481Z,100.00
2022-08-03T19:00:24.262Z,100.00
2022-08-03T19:03:05.235Z,100.00
2022-08-03T19:05:56.468Z,100.00
2022-08-03T19:08:34.956Z,100.00
2022-08-03T19:11:09.217Z,100.00
2022-08-03T19:13:50.512Z,100.00
2022-08-03T19:16:25.028Z,100.00
2022-08-03T19:18:55.383Z,100.00
2022-08-03T19:21:24.153Z,100.00
2022-08-03T19:23:52.901Z,100.00
2022-08-03T19:26:31.010Z,100.00
2022-08-03T19:29:00.276Z,100.00
2022-08-03T19:31:31.180Z,100.00
2022-08-03T19:34:04.405Z,100.00
2022-08-03T19:36:40.558Z,100.00
2022-08-03T19:39:12.760Z,100.00
2022-08-03T19:41:47.344Z,100.00
2022-08-03T19:44:24.251Z,100.00
2022-08-03T19:46:55.760Z,100.00
2022-08-03T19:50:06.254Z,100.00
2022-08-03T19:52:16.932Z,100.00
2022-08-03T19:54:54.611Z,100.00
2022-08-03T19:57:27.472Z,100.00
2022-08-03T19:59:56.782Z,100.00
2022-08-03T20:02:27.944Z,100.00
2022-08-03T20:04:59.852Z,100.00
2022-08-03T20:07:30.775Z,100.00
2022-08-03T20:09:59.712Z,100.00
2022-08-03T20:12:38.556Z,100.00
2022-08-03T20:15:09.245Z,100.00
2022-08-03T20:17:56.373Z,100.00
2022-08-03T20:20:28.574Z,100.00
2022-08-03T20:22:59.497Z,100.00
2022-08-03T20:25:38.381Z,100.00
2022-08-03T20:28:13.865Z,100.00
2022-08-03T20:30:43.865Z,100.00
2022-08-03T20:33:12.325Z,100.00
2022-08-03T20:35:49.057Z,100.00
2022-08-03T20:38:18.824Z,100.00
2022-08-03T20:40:48.369Z,100.00
2022-08-03T20:43:20.115Z,100.00
2022-08-03T20:45:59.826Z,100.00
2022-08-03T20:48:37.326Z,100.00
2022-08-03T20:51:20.214Z,100.00
2022-08-03T20:54:00.324Z,100.00
2022-08-03T20:56:33.782Z,100.00
2022-08-03T20:59:05.398Z,100.00
2022-08-03T21:01:36.115Z,100.00
2022-08-03T21:04:06.774Z,100.00
2022-08-03T21:06:39.671Z,100.00
2022-08-03T21:09:10.061Z,100.00
2022-08-03T21:11:44.320Z,100.00
2022-08-03T21:12:56.492Z,100.00
2022-08-03T21:14:20.924Z,100.00
2022-08-03T21:16:51.815Z,100.00
2022-08-03T21:19:22.891Z,100.00
2022-08-03T21:21:51.541Z,100.00
2022-08-03T21:24:24.601Z,100.00
2022-08-03T21:26:55.034Z,100.00
2022-08-03T21:29:25.114Z,100.00
2022-08-03T21:31:53.670Z,100.00
2022-08-03T21:34:22.728Z,100.00
2022-08-03T21:36:50.829Z,100.00
2022-08-03T21:39:18.991Z,100.00
2022-08-03T21:41:47.064Z,100.00
2022-08-03T21:44:18.193Z,100.00
2022-08-03T21:47:00.413Z,100.00
2022-08-03T21:50:07.444Z,100.00
2022-08-03T21:52:21.583Z,100.00
2022-08-03T21:54:51.325Z,100.00
2022-08-03T21:57:23.164Z,100.00
2022-08-03T21:59:55.484Z,100.00
2022-08-03T22:02:28.773Z,100.00
2022-08-03T22:04:59.596Z,100.00
2022-08-03T22:07:31.322Z,100.00
2022-08-03T22:10:01.114Z,100.00
2022-08-03T22:12:31.695Z,100.00
2022-08-03T22:15:08.412Z,100.00
2022-08-03T22:17:53.759Z,100.00
2022-08-03T22:20:23.164Z,100.00
2022-08-03T22:22:56.557Z,100.00
2022-08-03T22:25:29.987Z,100.00
2022-08-03T22:27:59.398Z,100.00
2022-08-03T22:30:28.145Z,100.00
2022-08-03T22:32:57.990Z,100.00
2022-08-03T22:35:28.049Z,100.00
2022-08-03T22:37:58.461Z,100.00
2022-08-03T22:40:27.819Z,100.00
2022-08-03T22:42:56.075Z,100.00
2022-08-03T22:46:07.736Z,100.00
2022-08-03T22:48:17.422Z,100.00
2022-08-03T22:50:46.446Z,100.00
2022-08-03T22:53:17.884Z,100.00
2022-08-03T22:55:45.963Z,100.00
2022-08-03T22:58:16.621Z,100.00
2022-08-03T23:00:53.751Z,100.00
2022-08-03T23:04:00.311Z,100.00
2022-08-03T23:06:19.407Z,100.00
2022-08-03T23:08:48.647Z,100.00
2022-08-03T23:11:20.014Z,100.00
2022-08-03T23:13:53.476Z,100.00
2022-08-03T23:16:29.298Z,100.00
2022-08-03T23:19:03.465Z,100.00
2022-08-03T23:21:53.783Z,100.00
2022-08-03T23:24:30.566Z,100.00
2022-08-03T23:26:59.408Z,100.00
2022-08-03T23:29:27.805Z,100.00
2022-08-03T23:31:57.440Z,100.00
2022-08-03T23:34:46.024Z,100.00
2022-08-03T23:37:15.921Z,100.00
2022-08-03T23:39:46.004Z,100.00
2022-08-03T23:42:16.358Z,100.00
2022-08-03T23:44:45.533Z,100.00
2022-08-03T23:47:14.016Z,100.00
2022-08-03T23:49:43.657Z,100.00
2022-08-03T23:52:18.079Z,100.00
2022-08-03T23:54:59.280Z,100.00
2022-08-03T23:57:33.863Z,100.00
